Time;durP1;ratioP1;P1;durP2;ratioP2;P2;SDS_P1;SDS_P2;PMS_P1;PMS_P2;Temp;Humidity;BMP_temperature;BMP_pressure;BME280_temperature;BME280_humidity;BME280_pressure;Samples;Min_cycle;Max_cycle;Signal;HPM_P1;HPM_P2
2023/04/27 00:00:09;;;;;;;11.65;7.22;;;8.60;99.90;;;;;;5118505;27;20019;-70
2023/04/27 00:02:36;;;;;;;11.07;7.15;;;8.50;99.90;;;;;;5121160;27;20031;-70
2023/04/27 00:05:02;;;;;;;16.67;8.48;;;8.50;99.90;;;;;;5115562;27;20023;-70
2023/04/27 00:07:28;;;;;;;15.93;8.80;;;8.30;99.90;;;;;;5119394;27;20038;-70
2023/04/27 00:09:53;;;;;;;13.52;8.80;;;8.30;99.90;;;;;;5114283;27;20102;-70
2023/04/27 00:12:19;;;;;;;14.65;8.55;;;8.40;99.90;;;;;;5118852;27;20028;-70
2023/04/27 00:14:45;;;;;;;14.10;8.57;;;8.40;99.90;;;;;;5118937;27;20027;-70
2023/04/27 00:17:11;;;;;;;13.73;9.02;;;8.40;99.90;;;;;;5118813;27;20102;-70
2023/04/27 00:19:38;;;;;;;13.30;8.10;;;8.40;99.90;;;;;;5119901;27;20039;-71
2023/04/27 00:22:05;;;;;;;16.27;8.73;;;8.30;99.90;;;;;;5114620;27;20054;-70
2023/04/27 00:24:31;;;;;;;14.32;7.90;;;8.30;99.90;;;;;;5126652;27;20032;-70
2023/04/27 00:26:56;;;;;;;19.95;8.73;;;8.30;99.90;;;;;;5134280;27;20384;-71
2023/04/27 00:29:22;;;;;;;13.20;8.35;;;8.20;99.90;;;;;;5134738;27;20102;-70
2023/04/27 00:31:48;;;;;;;13.68;8.57;;;8.10;99.90;;;;;;5136051;27;20459;-70
2023/04/27 00:34:13;;;;;;;14.65;8.23;;;8.20;99.90;;;;;;5135549;27;20049;-70
2023/04/27 00:36:40;;;;;;;12.07;7.57;;;8.20;99.90;;;;;;5135693;27;20463;-71
2023/04/27 00:39:05;;;;;;;13.35;7.47;;;8.10;99.90;;;;;;5135249;27;20106;-71
2023/04/27 00:41:31;;;;;;;15.73;8.35;;;8.00;99.90;;;;;;5133144;27;20114;-70
2023/04/27 00:43:57;;;;;;;15.82;8.88;;;8.00;99.90;;;;;;5134595;27;20038;-71
2023/04/27 00:46:23;;;;;;;15.85;9.73;;;7.90;99.90;;;;;;5134248;27;20019;-70
2023/04/27 00:48:49;;;;;;;14.35;9.35;;;8.00;99.90;;;;;;5134215;27;20092;-70
2023/04/27 00:51:15;;;;;;;16.67;8.93;;;8.00;99.90;;;;;;5135292;27;20019;-70
2023/04/27 00:53:42;;;;;;;15.63;9.30;;;8.00;99.90;;;;;;5135246;27;20106;-70
2023/04/27 00:56:08;;;;;;;15.60;10.05;;;8.00;99.90;;;;;;5133419;27;20016;-70
2023/04/27 00:58:34;;;;;;;16.50;9.23;;;7.90;99.90;;;;;;5134170;27;20035;-71
2023/04/27 01:01:00;;;;;;;18.20;9.10;;;7.90;99.90;;;;;;5133044;27;20067;-70
2023/04/27 01:03:27;;;;;;;15.95;9.85;;;7.80;99.90;;;;;;5133019;27;20483;-70
2023/04/27 01:05:53;;;;;;;18.85;10.18;;;7.80;99.90;;;;;;5131028;27;20387;-70
2023/04/27 01:08:18;;;;;;;20.50;9.85;;;7.80;99.90;;;;;;5132445;27;20135;-70
2023/04/27 01:10:44;;;;;;;17.90;10.25;;;7.70;99.90;;;;;;5132026;27;20170;-70
2023/04/27 01:13:10;;;;;;;17.40;9.55;;;7.80;99.90;;;;;;5133540;27;20081;-70
2023/04/27 01:15:37;;;;;;;19.55;10.38;;;7.80;99.90;;;;;;5134145;27;20018;-70
2023/04/27 01:18:03;;;;;;;15.85;9.82;;;7.70;99.90;;;;;;5134754;27;20019;-70
2023/04/27 01:20:29;;;;;;;15.40;9.13;;;7.70;99.90;;;;;;5135005;27;20089;-70
2023/04/27 01:22:58;;;;;;;15.40;8.57;;;7.70;99.90;;;;;;5135178;27;20043;-70
2023/04/27 01:25:24;;;;;;;17.20;9.38;;;7.70;99.90;;;;;;5134530;27;20015;-70
2023/04/27 01:27:50;;;;;;;16.58;9.10;;;7.70;99.90;;;;;;5134683;27;20417;-70
2023/04/27 01:30:16;;;;;;;17.02;9.13;;;7.70;99.90;;;;;;5134821;27;20076;-71
2023/04/27 01:32:42;;;;;;;18.05;9.75;;;7.70;99.90;;;;;;5125814;27;20066;-70
2023/04/27 01:35:08;;;;;;;15.13;10.23;;;7.60;99.90;;;;;;5123644;27;20068;-70
2023/04/27 01:37:34;;;;;;;21.73;10.80;;;7.60;99.90;;;;;;5134841;27;20038;-71
2023/04/27 01:40:00;;;;;;;20.15;9.20;;;7.50;99.90;;;;;;5133275;27;20026;-70
2023/04/27 01:42:26;;;;;;;15.20;9.63;;;7.40;99.90;;;;;;5134189;27;20464;-70
2023/04/27 01:44:51;;;;;;;12.25;8.32;;;7.30;99.90;;;;;;5133376;27;20062;-70
2023/04/27 01:47:17;;;;;;;19.77;9.57;;;7.40;99.90;;;;;;5134305;27;20026;-70
2023/04/27 01:49:43;;;;;;;20.83;10.80;;;7.40;99.90;;;;;;5134341;27;20019;-71
2023/04/27 01:52:09;;;;;;;16.08;10.30;;;7.30;99.90;;;;;;5132407;27;20064;-71
2023/04/27 01:54:35;;;;;;;24.80;10.73;;;7.30;99.90;;;;;;5133902;27;20379;-71
2023/04/27 01:57:01;;;;;;;19.30;10.20;;;7.30;99.90;;;;;;5132059;27;20026;-71
2023/04/27 01:59:27;;;;;;;24.10;11.52;;;7.30;99.90;;;;;;5129680;27;20391;-71
2023/04/27 02:01:53;;;;;;;20.92;10.85;;;7.30;99.90;;;;;;5132663;27;20011;-71
2023/04/27 02:04:19;;;;;;;20.02;10.63;;;7.20;99.90;;;;;;5133919;27;20050;-71
2023/04/27 02:06:46;;;;;;;20.08;10.60;;;7.20;99.90;;;;;;5133130;27;20484;-71
2023/04/27 02:09:12;;;;;;;27.30;10.18;;;7.20;99.90;;;;;;5132283;27;20368;-71
2023/04/27 02:11:37;;;;;;;17.85;10.70;;;7.10;99.90;;;;;;5133536;27;20027;-70
2023/04/27 02:14:03;;;;;;;17.23;10.27;;;7.10;99.90;;;;;;5133336;27;20034;-71
2023/04/27 02:16:29;;;;;;;15.65;9.32;;;7.10;99.90;;;;;;5133715;27;20011;-71
2023/04/27 02:18:55;;;;;;;15.88;10.25;;;7.10;99.90;;;;;;5133696;27;20031;-71
2023/04/27 02:21:21;;;;;;;14.32;9.68;;;7.10;99.90;;;;;;5133823;27;20025;-71
2023/04/27 02:23:47;;;;;;;18.13;9.65;;;7.10;99.90;;;;;;5133015;27;20479;-71
2023/04/27 02:26:21;;;;;;;14.98;9.40;;;7.10;99.90;;;;;;5133703;27;20015;-71
2023/04/27 02:28:47;;;;;;;15.85;9.25;;;7.00;99.90;;;;;;5133620;27;20023;-71
2023/04/27 02:31:13;;;;;;;18.23;9.75;;;7.00;99.90;;;;;;5133456;27;20029;-71
2023/04/27 02:33:40;;;;;;;16.88;10.23;;;7.00;99.90;;;;;;5129725;27;20409;-71
2023/04/27 02:36:09;;;;;;;18.02;9.20;;;7.00;99.90;;;;;;5130121;27;20019;-71
2023/04/27 02:38:35;;;;;;;14.10;9.52;;;6.90;99.90;;;;;;5113152;27;20042;-71
2023/04/27 02:41:01;;;;;;;15.60;9.95;;;6.80;99.90;;;;;;5131822;27;20098;-71
2023/04/27 02:43:27;;;;;;;18.23;10.35;;;6.80;99.90;;;;;;5132952;27;20027;-70
2023/04/27 02:45:52;;;;;;;17.13;9.75;;;6.80;99.90;;;;;;5131261;27;20015;-71
2023/04/27 02:48:18;;;;;;;17.10;9.55;;;6.90;99.90;;;;;;5132631;27;20563;-71
2023/04/27 02:50:44;;;;;;;15.65;8.60;;;6.80;99.90;;;;;;5133206;27;20370;-71
2023/04/27 02:53:11;;;;;;;18.95;10.13;;;6.70;99.90;;;;;;5133282;27;20019;-70
2023/04/27 02:55:37;;;;;;;20.05;10.57;;;6.70;99.90;;;;;;5129481;27;20025;-71
2023/04/27 02:58:03;;;;;;;16.15;10.63;;;6.70;99.90;;;;;;5133241;27;20022;-71
2023/04/27 03:00:29;;;;;;;16.83;10.00;;;6.70;99.90;;;;;;5133080;27;20371;-71
2023/04/27 03:02:55;;;;;;;19.02;9.48;;;6.70;99.90;;;;;;5133244;27;20023;-71
2023/04/27 03:05:21;;;;;;;18.30;10.02;;;6.60;99.90;;;;;;5132701;27;20498;-71
2023/04/27 03:07:47;;;;;;;19.77;11.13;;;6.60;99.90;;;;;;5129708;27;20035;-71
2023/04/27 03:10:12;;;;;;;15.38;9.20;;;6.60;99.90;;;;;;5116911;27;20030;-71
2023/04/27 03:12:38;;;;;;;27.75;10.52;;;6.50;99.90;;;;;;5130877;27;20120;-70
2023/04/27 03:15:04;;;;;;;20.88;10.77;;;6.50;99.90;;;;;;5130042;28;20015;-71
2023/04/27 03:17:30;;;;;;;17.33;10.90;;;6.50;99.90;;;;;;5132762;27;20016;-71
2023/04/27 03:19:56;;;;;;;19.85;12.23;;;6.50;99.90;;;;;;5133028;28;20019;-71
2023/04/27 03:22:22;;;;;;;19.52;11.10;;;6.50;99.90;;;;;;5132476;27;20027;-71
2023/04/27 03:24:47;;;;;;;16.08;9.73;;;6.50;99.90;;;;;;5131979;28;20015;-71
2023/04/27 03:27:13;;;;;;;21.35;10.48;;;6.40;99.90;;;;;;5129592;28;20027;-70
2023/04/27 03:29:39;;;;;;;19.48;10.95;;;6.40;99.90;;;;;;5122427;28;20019;-71
2023/04/27 03:32:05;;;;;;;18.42;10.45;;;6.40;99.90;;;;;;5130043;28;20049;-70
2023/04/27 03:34:30;;;;;;;23.63;12.00;;;6.40;99.90;;;;;;5127973;27;20019;-70
2023/04/27 03:36:56;;;;;;;16.52;10.50;;;6.30;99.90;;;;;;5132140;28;20027;-70
2023/04/27 03:39:22;;;;;;;20.90;9.95;;;6.30;99.90;;;;;;5132524;27;20551;-71
2023/04/27 03:41:48;;;;;;;18.77;10.82;;;6.30;99.90;;;;;;5130980;27;20031;-71
2023/04/27 03:44:13;;;;;;;18.45;10.32;;;6.30;99.90;;;;;;5130781;28;20070;-71
2023/04/27 03:46:39;;;;;;;17.90;10.25;;;6.30;99.90;;;;;;5131173;27;20472;-71
2023/04/27 03:49:06;;;;;;;18.73;9.73;;;6.30;99.90;;;;;;5132683;27;20499;-71
2023/04/27 03:51:32;;;;;;;19.67;10.00;;;6.20;99.90;;;;;;5131233;27;20503;-71
2023/04/27 03:53:59;;;;;;;16.75;9.65;;;6.20;99.90;;;;;;5132576;27;20133;-70
2023/04/27 03:56:25;;;;;;;21.00;9.80;;;6.20;99.90;;;;;;5132576;27;20176;-71
2023/04/27 03:58:51;;;;;;;17.13;9.68;;;6.20;99.90;;;;;;5132640;27;20059;-71
2023/04/27 04:01:17;;;;;;;16.15;10.15;;;6.20;99.90;;;;;;5132864;27;20598;-71
2023/04/27 04:03:44;;;;;;;20.60;10.07;;;6.10;99.90;;;;;;5132124;27;20019;-71
2023/04/27 04:06:09;;;;;;;21.63;10.30;;;6.00;99.90;;;;;;5131431;27;20043;-71
2023/04/27 04:08:36;;;;;;;17.55;10.27;;;6.00;99.90;;;;;;5131177;27;21141;-71
2023/04/27 04:11:02;;;;;;;19.10;9.75;;;6.00;99.90;;;;;;5130151;27;20026;-71
2023/04/27 04:13:28;;;;;;;17.42;9.90;;;6.00;99.90;;;;;;5129377;28;20036;-71
2023/04/27 04:16:01;;;;;;;16.70;10.10;;;6.00;99.90;;;;;;5128380;28;20015;-71
2023/04/27 04:18:26;;;;;;;;;;;6.00;99.90;;;;;;5132448;27;20484;-71
2023/04/27 04:20:52;;;;;;;19.05;8.75;;;6.00;99.90;;;;;;5135567;27;19903;-71
2023/04/27 04:23:17;;;;;;;16.65;9.23;;;6.00;99.90;;;;;;5135039;27;20028;-71
2023/04/27 04:25:46;;;;;;;19.27;9.57;;;5.90;99.90;;;;;;5136098;27;20019;-71
2023/04/27 04:28:12;;;;;;;20.45;10.77;;;5.90;99.90;;;;;;5136073;27;20037;-71
2023/04/27 04:30:39;;;;;;;21.45;10.35;;;5.90;99.90;;;;;;5135572;27;20011;-71
2023/04/27 04:33:05;;;;;;;19.17;10.52;;;5.90;99.90;;;;;;5135211;27;20034;-71
2023/04/27 04:35:31;;;;;;;20.75;11.10;;;5.90;99.90;;;;;;5135810;27;20011;-71
2023/04/27 04:37:58;;;;;;;22.10;11.40;;;5.90;99.90;;;;;;5133314;27;20439;-71
2023/04/27 04:40:24;;;;;;;17.30;9.57;;;5.80;99.90;;;;;;5134769;27;20027;-71
2023/04/27 04:42:49;;;;;;;17.33;10.20;;;5.90;99.90;;;;;;5133716;27;20456;-70
2023/04/27 04:45:16;;;;;;;24.58;10.65;;;5.80;99.90;;;;;;5133871;27;20024;-71
2023/04/27 04:47:42;;;;;;;22.10;11.20;;;5.80;99.90;;;;;;5135330;27;20496;-71
2023/04/27 04:50:11;;;;;;;19.10;9.75;;;5.70;99.90;;;;;;5135211;27;20016;-71
2023/04/27 04:52:38;;;;;;;18.30;10.35;;;5.70;99.90;;;;;;5133346;27;20020;-71
2023/04/27 04:55:04;;;;;;;22.30;11.40;;;5.70;99.90;;;;;;5134359;27;20023;-71
2023/04/27 04:57:30;;;;;;;15.98;10.00;;;5.60;99.90;;;;;;5135142;27;20015;-70
2023/04/27 04:59:56;;;;;;;21.15;10.50;;;5.70;99.90;;;;;;5133183;27;20491;-71
2023/04/27 05:02:21;;;;;;;20.85;10.63;;;5.70;99.90;;;;;;5134839;27;20540;-71
2023/04/27 05:04:47;;;;;;;21.90;10.10;;;5.70;99.90;;;;;;5135236;27;20011;-72
2023/04/27 05:07:13;;;;;;;18.13;10.02;;;5.70;99.90;;;;;;5135319;27;20031;-71
2023/04/27 05:09:39;;;;;;;18.83;8.95;;;5.70;99.90;;;;;;5134259;27;20015;-71
2023/04/27 05:12:05;;;;;;;20.10;9.98;;;5.60;99.90;;;;;;5133617;27;20036;-71
2023/04/27 05:14:32;;;;;;;21.52;9.63;;;5.60;99.90;;;;;;5133650;27;20503;-71
2023/04/27 05:16:57;;;;;;;17.45;9.63;;;5.50;99.90;;;;;;5135023;27;20019;-71
2023/04/27 05:19:24;;;;;;;15.80;9.10;;;5.60;99.90;;;;;;5134656;27;20114;-71
2023/04/27 05:21:50;;;;;;;19.15;10.57;;;5.60;99.90;;;;;;5133041;27;20098;-71
2023/04/27 05:24:15;;;;;;;17.20;10.20;;;5.60;99.90;;;;;;5134223;27;20547;-71
2023/04/27 05:26:42;;;;;;;21.08;9.77;;;5.70;99.90;;;;;;5135189;27;20027;-71
2023/04/27 05:29:08;;;;;;;19.88;10.25;;;5.70;99.90;;;;;;5134578;27;20019;-71
2023/04/27 05:31:33;;;;;;;15.85;8.75;;;5.70;99.90;;;;;;5134600;27;20019;-71
2023/04/27 05:33:59;;;;;;;20.60;10.23;;;5.80;99.90;;;;;;5131895;27;20093;-71
2023/04/27 05:36:27;;;;;;;17.38;9.48;;;5.80;99.90;;;;;;5134334;27;20023;-71
2023/04/27 05:38:53;;;;;;;15.60;9.02;;;5.80;99.90;;;;;;5134566;27;20130;-71
2023/04/27 05:41:19;;;;;;;16.80;8.65;;;5.80;99.90;;;;;;5135019;27;20019;-71
2023/04/27 05:43:44;;;;;;;17.75;9.10;;;5.90;99.90;;;;;;5134387;27;20387;-71
2023/04/27 05:46:14;;;;;;;17.17;9.27;;;5.90;99.90;;;;;;5133372;27;20091;-71
2023/04/27 05:48:40;;;;;;;14.93;9.65;;;6.00;99.90;;;;;;5134557;27;20455;-71
2023/04/27 05:51:06;;;;;;;14.93;9.10;;;6.00;99.90;;;;;;5133007;27;20023;-71
2023/04/27 05:53:32;;;;;;;15.85;9.30;;;6.00;99.90;;;;;;5133222;27;20590;-71
2023/04/27 05:55:59;;;;;;;16.13;9.35;;;6.00;99.90;;;;;;5134366;27;20016;-71
2023/04/27 05:58:26;;;;;;;15.75;9.90;;;6.00;99.90;;;;;;5134117;27;20836;-71
2023/04/27 06:00:53;;;;;;;16.75;9.73;;;6.00;99.90;;;;;;5133680;27;20106;-71
2023/04/27 06:03:19;;;;;;;17.13;10.02;;;6.10;99.90;;;;;;5134019;27;20023;-72
2023/04/27 06:05:44;;;;;;;18.77;10.13;;;6.10;99.90;;;;;;5131523;27;20015;-72
2023/04/27 06:08:11;;;;;;;22.13;11.15;;;6.10;99.90;;;;;;5135521;27;20026;-73
2023/04/27 06:10:40;;;;;;;20.23;10.73;;;6.10;99.90;;;;;;5132398;27;20016;-72
2023/04/27 06:13:06;;;;;;;22.38;11.30;;;6.20;99.90;;;;;;5132966;27;20031;-71
2023/04/27 06:15:31;;;;;;;24.17;12.15;;;6.30;99.90;;;;;;5133481;27;20142;-71
2023/04/27 06:17:57;;;;;;;19.90;10.73;;;6.20;99.90;;;;;;5133300;27;20459;-71
2023/04/27 06:20:23;;;;;;;21.67;10.88;;;6.20;99.90;;;;;;5133441;27;20054;-71
2023/04/27 06:22:48;;;;;;;26.52;11.85;;;6.30;99.90;;;;;;5133680;27;20007;-71
2023/04/27 06:25:14;;;;;;;24.20;12.35;;;6.30;99.90;;;;;;5130921;27;20468;-72
2023/04/27 06:27:40;;;;;;;26.98;14.15;;;6.40;99.90;;;;;;5131922;27;20075;-70
2023/04/27 06:30:06;;;;;;;27.77;13.50;;;6.50;99.90;;;;;;5133172;27;20025;-69
2023/04/27 06:32:32;;;;;;;23.52;12.70;;;6.60;99.90;;;;;;5132950;27;20471;-70
2023/04/27 06:34:58;;;;;;;22.55;12.82;;;6.60;99.90;;;;;;5133294;27;20034;-70
2023/04/27 06:37:24;;;;;;;27.20;12.57;;;6.80;99.90;;;;;;5133230;27;20051;-71
2023/04/27 06:39:50;;;;;;;21.33;12.45;;;6.80;99.90;;;;;;5132208;27;20066;-73
2023/04/27 06:42:16;;;;;;;23.80;12.57;;;7.00;99.90;;;;;;5131272;27;20409;-72
2023/04/27 06:44:41;;;;;;;24.10;12.55;;;7.10;99.90;;;;;;5133219;27;20039;-72
2023/04/27 06:47:07;;;;;;;24.67;12.57;;;7.20;99.90;;;;;;5132758;27;20344;-72
2023/04/27 06:49:32;;;;;;;29.83;13.38;;;7.20;99.90;;;;;;5131702;27;20023;-72
2023/04/27 06:52:01;;;;;;;23.23;10.90;;;7.30;99.90;;;;;;5129413;27;20523;-70
2023/04/27 06:54:27;;;;;;;22.83;10.43;;;7.50;99.90;;;;;;5132699;27;20375;-71
2023/04/27 06:56:53;;;;;;;18.77;10.73;;;7.60;99.90;;;;;;5133168;27;20027;-69
2023/04/27 06:59:19;;;;;;;26.83;11.38;;;7.60;99.90;;;;;;5129533;27;20031;-71
2023/04/27 07:01:45;;;;;;;19.08;9.85;;;7.70;99.90;;;;;;5131548;27;20479;-71
2023/04/27 07:04:11;;;;;;;17.75;9.65;;;7.90;99.90;;;;;;5132127;27;20027;-71
2023/04/27 07:06:37;;;;;;;23.25;10.13;;;7.90;99.90;;;;;;5131492;27;20012;-71
2023/04/27 07:09:04;;;;;;;18.98;10.20;;;8.00;99.90;;;;;;5132111;27;20023;-72
2023/04/27 07:11:30;;;;;;;17.05;8.93;;;8.10;99.90;;;;;;5132837;27;20031;-72
2023/04/27 07:13:56;;;;;;;17.05;10.00;;;8.30;99.90;;;;;;5132516;27;20518;-71
2023/04/27 07:16:22;;;;;;;21.33;9.73;;;8.40;99.90;;;;;;5131584;28;20107;-71
2023/04/27 07:18:48;;;;;;;16.08;10.10;;;8.50;99.90;;;;;;5132987;28;20035;-70
2023/04/27 07:21:13;;;;;;;15.32;9.02;;;8.70;99.90;;;;;;5130399;28;20021;-70
2023/04/27 07:23:42;;;;;;;20.83;9.77;;;8.70;99.90;;;;;;5130852;28;20457;-69
2023/04/27 07:26:08;;;;;;;17.35;8.98;;;8.90;99.90;;;;;;5130449;27;20039;-70
2023/04/27 07:28:34;;;;;;;15.90;9.10;;;9.00;99.90;;;;;;5131097;27;20061;-69
2023/04/27 07:31:03;;;;;;;18.02;8.73;;;9.10;99.90;;;;;;5132747;27;20023;-71
2023/04/27 07:33:29;;;;;;;16.77;8.70;;;9.20;99.90;;;;;;5132209;27;20015;-70
2023/04/27 07:35:55;;;;;;;20.73;9.13;;;9.40;99.90;;;;;;5132392;27;20072;-70
2023/04/27 07:38:22;;;;;;;14.73;9.05;;;9.60;99.90;;;;;;5131638;27;20023;-69
2023/04/27 07:40:48;;;;;;;17.60;8.73;;;9.70;99.90;;;;;;5132697;27;20026;-71
2023/04/27 07:43:14;;;;;;;16.48;8.25;;;9.70;99.90;;;;;;5132281;27;20054;-71
2023/04/27 07:45:41;;;;;;;17.60;7.95;;;9.80;99.90;;;;;;5132289;27;20015;-70
2023/04/27 07:48:06;;;;;;;14.70;8.10;;;10.00;99.90;;;;;;5132444;27;20512;-69
2023/04/27 07:50:32;;;;;;;17.27;8.95;;;10.10;99.90;;;;;;5131550;28;20019;-70
2023/04/27 07:52:58;;;;;;;15.15;7.95;;;10.30;99.90;;;;;;5132789;27;20015;-70
2023/04/27 07:55:25;;;;;;;12.40;7.50;;;10.30;99.90;;;;;;5133111;27;20019;-70
2023/04/27 07:57:55;;;;;;;17.73;9.40;;;10.40;99.90;;;;;;5133601;27;20024;-69
2023/04/27 08:00:22;;;;;;;12.27;8.32;;;10.50;99.90;;;;;;5135062;27;20033;-69
2023/04/27 08:02:49;;;;;;;18.85;8.70;;;10.70;99.90;;;;;;5134726;27;20034;-70
2023/04/27 08:05:15;;;;;;;13.98;7.85;;;10.80;99.90;;;;;;5135517;27;20012;-69
2023/04/27 08:07:40;;;;;;;13.60;8.25;;;10.80;99.90;;;;;;5134677;27;20026;-69
2023/04/27 08:10:07;;;;;;;16.35;8.77;;;10.90;99.90;;;;;;5134365;27;20494;-69
2023/04/27 08:12:33;;;;;;;13.00;8.45;;;11.10;99.90;;;;;;5133796;27;20083;-69
2023/04/27 08:14:59;;;;;;;16.05;7.68;;;11.10;99.90;;;;;;5134675;27;20019;-70
2023/04/27 08:17:25;;;;;;;14.90;8.80;;;11.10;99.90;;;;;;5135942;27;20023;-69
2023/04/27 08:19:51;;;;;;;19.83;8.27;;;11.30;99.90;;;;;;5131546;27;20023;-70
2023/04/27 08:22:17;;;;;;;16.65;8.38;;;11.50;99.90;;;;;;5133424;27;20505;-69
2023/04/27 08:24:42;;;;;;;23.50;8.57;;;11.60;99.90;;;;;;5136023;27;20483;-70
2023/04/27 08:27:08;;;;;;;12.27;7.50;;;11.60;99.90;;;;;;5104467;27;20139;-71
2023/04/27 08:29:34;;;;;;;14.27;8.35;;;11.80;99.90;;;;;;5118255;27;20023;-71
2023/04/27 08:32:01;;;;;;;12.55;7.68;;;11.80;99.90;;;;;;5119860;27;20610;-72
2023/04/27 08:34:27;;;;;;;15.13;7.60;;;12.00;99.90;;;;;;5117302;27;20102;-72
2023/04/27 08:36:54;;;;;;;16.05;7.82;;;12.20;99.90;;;;;;5115703;27;20110;-71
2023/04/27 08:39:20;;;;;;;13.10;6.75;;;12.30;99.90;;;;;;5116617;27;20032;-72
2023/04/27 08:41:46;;;;;;;13.00;7.88;;;12.40;99.90;;;;;;5118223;27;20483;-72
2023/04/27 08:44:12;;;;;;;14.48;7.57;;;12.60;99.90;;;;;;5115091;27;20052;-71
2023/04/27 08:46:38;;;;;;;9.40;7.65;;;12.50;99.90;;;;;;5117884;27;20016;-71
2023/04/27 08:49:04;;;;;;;13.05;8.50;;;12.60;99.90;;;;;;5118965;27;20022;-70
2023/04/27 08:51:31;;;;;;;12.32;7.07;;;12.60;99.90;;;;;;5122823;27;20018;-71
2023/04/27 08:53:57;;;;;;;14.05;7.10;;;12.80;99.90;;;;;;5115983;27;20028;-70
2023/04/27 08:56:25;;;;;;;12.20;6.60;;;13.00;99.90;;;;;;5119934;27;20016;-72
2023/04/27 08:58:51;;;;;;;11.07;6.35;;;13.20;99.90;;;;;;5119731;27;20538;-71
2023/04/27 09:01:17;;;;;;;12.98;6.60;;;13.20;99.90;;;;;;5125283;27;20027;-71
2023/04/27 09:03:47;;;;;;;11.98;6.50;;;13.30;99.90;;;;;;5116354;27;20027;-70
2023/04/27 09:06:14;;;;;;;11.48;6.70;;;13.40;99.90;;;;;;5121611;27;20063;-71
2023/04/27 09:08:45;;;;;;;12.10;7.03;;;13.30;99.90;;;;;;5115162;27;20031;-71
2023/04/27 09:11:11;;;;;;;10.32;5.95;;;13.30;99.90;;;;;;5118726;27;20544;-70
2023/04/27 09:13:38;;;;;;;12.80;6.50;;;13.40;99.90;;;;;;5115877;27;20042;-71
2023/04/27 09:16:05;;;;;;;10.30;5.65;;;13.50;99.90;;;;;;5115187;27;20030;-71
2023/04/27 09:18:35;;;;;;;10.68;6.38;;;13.50;99.90;;;;;;5121761;27;20051;-70
2023/04/27 09:21:03;;;;;;;11.30;6.35;;;13.60;99.90;;;;;;5118805;27;20135;-70
2023/04/27 09:23:37;;;;;;;11.32;6.30;;;13.50;99.90;;;;;;5114284;27;20031;-70
2023/04/27 09:26:07;;;;;;;10.57;6.10;;;13.40;99.90;;;;;;5122859;27;20026;-72
2023/04/27 09:28:37;;;;;;;9.45;6.28;;;13.70;99.90;;;;;;5121926;27;20027;-70
2023/04/27 09:31:03;;;;;;;12.57;6.68;;;13.70;99.90;;;;;;5115735;27;20027;-69
2023/04/27 09:33:31;;;;;;;10.55;6.32;;;13.70;99.90;;;;;;5122223;27;20028;-69
2023/04/27 09:35:59;;;;;;;9.25;5.45;;;13.70;99.90;;;;;;5113739;27;20015;-72
2023/04/27 09:38:27;;;;;;;8.45;5.60;;;13.70;99.90;;;;;;5110005;27;20372;-71
2023/04/27 09:40:54;;;;;;;10.93;5.65;;;13.80;99.90;;;;;;5117556;27;20077;-72
2023/04/27 09:43:20;;;;;;;9.13;5.40;;;13.80;99.90;;;;;;5110337;27;20036;-72
2023/04/27 09:45:47;;;;;;;11.77;5.88;;;13.90;99.90;;;;;;5113473;27;20472;-69
2023/04/27 09:48:13;;;;;;;7.15;5.00;;;14.10;99.90;;;;;;5118212;27;20023;-69
2023/04/27 09:50:43;;;;;;;8.38;4.60;;;14.10;99.90;;;;;;5113493;27;20071;-70
2023/04/27 09:53:14;;;;;;;8.10;5.00;;;14.30;99.90;;;;;;5118263;27;20101;-69
2023/04/27 09:55:47;;;;;;;10.43;5.30;;;14.40;99.90;;;;;;5113240;27;20019;-69
2023/04/27 09:58:40;;;;;;;7.85;5.22;;;14.10;99.90;;;;;;5117391;27;20030;-70
2023/04/27 10:01:31;;;;;;;10.70;5.93;;;14.40;99.90;;;;;;5116378;27;20031;-69
2023/04/27 10:04:21;;;;;;;10.20;5.57;;;14.50;99.90;;;;;;5115348;27;20031;-71
2023/04/27 10:07:01;;;;;;;8.57;5.82;;;14.60;99.90;;;;;;5118595;27;20046;-70
2023/04/27 10:09:34;;;;;;;11.27;6.20;;;14.70;99.90;;;;;;5119917;27;20416;-71
2023/04/27 10:12:14;;;;;;;11.00;6.45;;;14.60;99.90;;;;;;5112189;27;20355;-71
2023/04/27 10:14:59;;;;;;;13.23;6.03;;;14.60;99.90;;;;;;5114290;27;20435;-71
2023/04/27 10:17:29;;;;;;;9.88;5.40;;;14.70;99.90;;;;;;5112740;27;20106;-71
2023/04/27 10:20:03;;;;;;;8.68;5.25;;;14.70;99.90;;;;;;5113321;27;20035;-71
2023/04/27 10:22:45;;;;;;;7.80;5.43;;;14.90;99.90;;;;;;5117270;27;20015;-71
2023/04/27 10:25:22;;;;;;;9.43;6.07;;;15.10;99.90;;;;;;5118015;27;20531;-70
2023/04/27 10:27:59;;;;;;;11.02;6.38;;;15.00;99.90;;;;;;5116639;27;20027;-71
2023/04/27 10:30:35;;;;;;;13.70;6.75;;;15.10;99.90;;;;;;5112803;27;21411;-71
2023/04/27 10:33:09;;;;;;;9.10;5.85;;;15.20;99.90;;;;;;5114014;27;20139;-71
2023/04/27 10:35:40;;;;;;;12.43;6.05;;;15.00;99.90;;;;;;5118158;27;20026;-71
2023/04/27 10:38:18;;;;;;;9.02;5.72;;;15.30;99.90;;;;;;5114219;27;20038;-72
2023/04/27 10:40:45;;;;;;;12.07;6.00;;;15.30;99.50;;;;;;5109674;27;20023;-72
2023/04/27 10:43:16;;;;;;;11.32;5.75;;;15.30;98.50;;;;;;5119985;27;20627;-71
2023/04/27 10:45:43;;;;;;;10.52;5.38;;;15.30;99.90;;;;;;5119244;27;20399;-71
2023/04/27 10:48:14;;;;;;;9.95;5.03;;;15.30;98.50;;;;;;5119767;27;20056;-70
2023/04/27 10:50:41;;;;;;;8.05;5.18;;;15.40;99.90;;;;;;5117142;27;20087;-70
2023/04/27 10:53:07;;;;;;;7.88;5.53;;;15.20;98.80;;;;;;5116956;27;20028;-71
2023/04/27 10:55:34;;;;;;;8.88;5.53;;;15.40;99.90;;;;;;5116607;27;20039;-70
2023/04/27 10:58:01;;;;;;;8.55;5.35;;;15.30;97.60;;;;;;5117011;27;20059;-71
2023/04/27 11:00:42;;;;;;;9.05;5.90;;;15.40;99.60;;;;;;5119084;27;20019;-71
2023/04/27 11:03:18;;;;;;;11.30;6.38;;;15.50;97.10;;;;;;5114226;27;20027;-71
2023/04/27 11:05:45;;;;;;;9.20;6.07;;;15.40;96.90;;;;;;5116529;27;20027;-72
2023/04/27 11:08:13;;;;;;;8.05;5.43;;;15.40;95.90;;;;;;5116243;27;20035;-71
2023/04/27 11:10:41;;;;;;;9.13;5.43;;;15.50;96.40;;;;;;5112123;27;20152;-71
2023/04/27 11:13:08;;;;;;;9.27;5.72;;;15.70;97.80;;;;;;5113967;27;20035;-70
2023/04/27 11:16:03;;;;;;;12.38;5.95;;;15.70;97.70;;;;;;5113931;28;20102;-71
2023/04/27 11:18:34;;;;;;;9.70;5.22;;;15.80;96.00;;;;;;5109367;27;20411;-70
2023/04/27 11:21:19;;;;;;;8.20;5.17;;;15.80;94.50;;;;;;5113647;28;20019;-71
2023/04/27 11:23:45;;;;;;;7.55;4.90;;;15.70;95.40;;;;;;5108759;28;20023;-71
2023/04/27 11:26:15;;;;;;;8.35;4.97;;;15.80;96.00;;;;;;5112213;28;20400;-70
2023/04/27 11:29:10;;;;;;;8.35;5.70;;;15.80;94.60;;;;;;5118332;27;20430;-70
2023/04/27 11:31:46;;;;;;;6.80;4.82;;;15.60;93.80;;;;;;5115546;27;20475;-71
2023/04/27 11:34:16;;;;;;;6.00;5.03;;;15.70;93.30;;;;;;5121003;27;20084;-71
2023/04/27 11:36:41;;;;;;;9.60;5.38;;;15.70;94.40;;;;;;5119888;27;20115;-71
2023/04/27 11:39:08;;;;;;;9.38;5.88;;;15.70;95.10;;;;;;5121408;27;20084;-72
2023/04/27 11:41:38;;;;;;;7.07;4.55;;;16.00;94.60;;;;;;5116738;27;20016;-71
2023/04/27 11:44:07;;;;;;;8.45;5.28;;;16.00;94.90;;;;;;5115088;27;20023;-71
2023/04/27 11:46:36;;;;;;;8.20;5.72;;;16.20;94.90;;;;;;5114688;27;20119;-71
2023/04/27 11:49:07;;;;;;;7.40;5.70;;;16.40;94.40;;;;;;5117337;27;20019;-71
2023/04/27 11:51:34;;;;;;;8.18;5.10;;;16.50;93.60;;;;;;5120039;27;20080;-71
2023/04/27 11:54:05;;;;;;;6.68;4.45;;;16.50;92.10;;;;;;5118195;27;20433;-71
2023/04/27 11:56:41;;;;;;;8.23;4.53;;;16.40;92.10;;;;;;5121571;27;20038;-71
2023/04/27 11:59:28;;;;;;;7.25;4.72;;;16.40;92.00;;;;;;5118457;27;20027;-72
2023/04/27 12:01:53;;;;;;;7.00;4.20;;;16.50;93.00;;;;;;5135160;27;20375;-70
2023/04/27 12:04:19;;;;;;;6.78;4.85;;;16.70;91.30;;;;;;5119309;27;20019;-69
2023/04/27 12:06:45;;;;;;;8.68;4.70;;;16.90;92.20;;;;;;5117896;27;20027;-70
2023/04/27 12:09:10;;;;;;;8.68;5.53;;;16.90;91.20;;;;;;5120007;27;20024;-70
2023/04/27 12:11:36;;;;;;;6.18;4.95;;;16.60;92.10;;;;;;5119715;27;20031;-70
2023/04/27 12:14:03;;;;;;;6.57;5.60;;;16.90;94.20;;;;;;5124578;27;20023;-70
2023/04/27 12:16:29;;;;;;;6.57;5.15;;;16.80;91.20;;;;;;5124287;27;20106;-70
2023/04/27 12:18:55;;;;;;;10.57;7.38;;;16.90;92.90;;;;;;5124343;27;20500;-71
2023/04/27 12:21:21;;;;;;;11.27;6.03;;;17.00;92.30;;;;;;5118695;27;20059;-71
2023/04/27 12:23:47;;;;;;;6.88;5.68;;;16.90;91.50;;;;;;5122261;27;20079;-72
2023/04/27 12:26:12;;;;;;;7.43;4.65;;;16.90;92.80;;;;;;5120176;27;20034;-71
2023/04/27 12:28:38;;;;;;;8.57;5.85;;;17.20;91.80;;;;;;5116845;27;20030;-72
2023/04/27 12:31:04;;;;;;;9.25;6.15;;;17.30;91.80;;;;;;5123086;27;20536;-71
2023/04/27 12:33:31;;;;;;;6.82;5.88;;;17.20;91.40;;;;;;5122445;27;20080;-72
2023/04/27 12:35:56;;;;;;;8.68;6.07;;;17.10;92.20;;;;;;5114862;27;20042;-72
2023/04/27 12:38:22;;;;;;;6.65;5.45;;;17.30;92.10;;;;;;5116694;27;20387;-72
2023/04/27 12:40:48;;;;;;;10.02;6.35;;;17.30;90.20;;;;;;5117654;27;20114;-72
2023/04/27 12:43:14;;;;;;;8.35;5.32;;;17.10;90.80;;;;;;5119016;27;20031;-72